Time;durP1;ratioP1;P1;durP2;ratioP2;P2;SDS_P1;SDS_P2;PMS_P1;PMS_P2;Temp;Humidity;BMP_temperature;BMP_pressure;BME280_temperature;BME280_humidity;BME280_pressure;Samples;Min_cycle;Max_cycle;Signal;HPM_P1;HPM_P2
2022/07/21 00:01:24;;;;;;;11.32;6.47;;;;;;;;;;5090022;28;20071;-86
2022/07/21 00:03:50;;;;;;;16.60;7.47;;;;;;;;;;5075683;28;20132;-86
2022/07/21 00:06:16;;;;;;;7.05;6.32;;;;;;;;;;5076290;28;20044;-87
2022/07/21 00:08:42;;;;;;;13.43;6.85;;;;;;;;;;5076562;28;20048;-87
2022/07/21 00:11:08;;;;;;;17.33;7.57;;;;;;;;;;5076538;28;20097;-87
2022/07/21 00:13:34;;;;;;;13.02;7.60;;;;;;;;;;5076454;28;20044;-87
2022/07/21 00:16:01;;;;;;;11.35;7.43;;;;;;;;;;5076274;28;20040;-84
2022/07/21 00:18:28;;;;;;;13.98;8.45;;;;;;;;;;5076063;28;20090;-82
2022/07/21 00:20:58;;;;;;;11.93;8.43;;;20.60;99.90;;;;;;5075897;28;20097;-81
2022/07/21 00:23:24;;;;;;;10.23;8.45;;;20.60;99.90;;;;;;5076183;28;20037;-81
2022/07/21 00:25:51;;;;;;;16.25;8.93;;;20.60;99.90;;;;;;5093031;28;20048;-85
2022/07/21 00:28:18;;;;;;;14.02;8.63;;;;;;;;;;5093191;28;20036;-82
2022/07/21 00:30:44;;;;;;;11.00;7.45;;;;;;;;;;5076335;28;20093;-83
2022/07/21 00:33:10;;;;;;;13.60;8.10;;;;;;;;;;5075907;28;20047;-83
2022/07/21 00:35:36;;;;;;;18.52;10.13;;;;;;;;;;5075776;28;20040;-86
2022/07/21 00:38:03;;;;;;;10.30;7.57;;;;;;;;;;5076160;28;20044;-85
2022/07/21 00:40:28;;;;;;;11.68;8.05;;;20.40;99.90;;;;;;5075667;28;20137;-83
2022/07/21 00:42:55;;;;;;;13.10;8.00;;;;;;;;;;5075688;28;20500;-85
2022/07/21 00:45:21;;;;;;;9.45;7.50;;;;;;;;;;5092791;28;20040;-84
2022/07/21 00:47:47;;;;;;;16.48;10.43;;;;;;;;;;5075693;28;20124;-83
2022/07/21 00:50:15;;;;;;;17.98;9.30;;;20.30;99.90;;;;;;5092459;28;20044;-85
2022/07/21 00:52:42;;;;;;;14.30;9.80;;;;;;;;;;5092865;28;20040;-84
2022/07/21 00:55:11;;;;;;;12.88;9.18;;;20.50;99.90;;;;;;5093770;28;20051;-81
2022/07/21 00:57:37;;;;;;;12.85;9.27;;;;;;;;;;5092612;28;20048;-82
2022/07/21 01:00:06;;;;;;;22.83;9.98;;;20.40;99.90;;;;;;5092319;28;20052;-81
2022/07/21 01:02:36;;;;;;;13.50;9.70;;;;;;;;;;5092277;28;20058;-83
2022/07/21 01:05:02;;;;;;;14.05;9.27;;;;;;;;;;5092435;28;20055;-81
2022/07/21 01:07:28;;;;;;;13.00;10.07;;;;;;;;;;5091919;28;20039;-81
2022/07/21 01:09:55;;;;;;;11.90;9.10;;;20.40;99.90;;;;;;5075329;28;20504;-81
2022/07/21 01:12:21;;;;;;;11.63;10.35;;;;;;;;;;5092293;28;20052;-81
2022/07/21 01:14:47;;;;;;;13.65;9.15;;;;;;;;;;5075278;28;20507;-81
2022/07/21 01:17:14;;;;;;;16.48;10.13;;;;;;;;;;5091866;28;20097;-82
2022/07/21 01:19:41;;;;;;;17.05;11.05;;;;;;;;;;5091797;28;20123;-82
2022/07/21 01:22:07;;;;;;;18.02;10.35;;;;;;;;;;5091788;28;20044;-82
2022/07/21 01:24:33;;;;;;;15.43;11.02;;;;;;;;;;5092081;28;20089;-82
2022/07/21 01:26:59;;;;;;;14.48;10.45;;;;;;;;;;5091721;28;20043;-82
2022/07/21 01:29:26;;;;;;;14.52;10.60;;;20.30;99.90;;;;;;5091781;28;20059;-82
2022/07/21 01:31:52;;;;;;;16.02;9.68;;;;;;;;;;5074745;28;20044;-82
2022/07/21 01:34:18;;;;;;;16.08;10.60;;;;;;;;;;5075127;28;20493;-83
2022/07/21 01:36:44;;;;;;;16.42;11.00;;;;;;;;;;5091340;28;20446;-83
2022/07/21 01:41:55;;;;;;;17.92;12.18;;;;;;;;;;5091412;28;20094;-82
2022/07/21 01:44:21;;;;;;;18.98;12.10;;;;;;;;;;5091556;28;20050;-81
2022/07/21 01:46:50;;;;;;;16.08;11.20;;;20.30;99.90;;;;;;5091912;28;20048;-82
2022/07/21 01:49:18;;;;;;;17.90;11.45;;;20.20;99.90;;;;;;5074812;28;20480;-83
2022/07/21 01:51:44;;;;;;;15.60;10.82;;;20.30;99.90;;;;;;5074387;28;20043;-82
2022/07/21 01:54:11;;;;;;;14.48;10.85;;;20.20;99.90;;;;;;5091102;28;20052;-81
2022/07/21 01:56:38;;;;;;;18.40;10.60;;;20.20;99.90;;;;;;5091279;28;20047;-82
2022/07/21 01:59:04;;;;;;;18.30;11.90;;;;;;;;;;5091557;28;20492;-83
2022/07/21 02:01:31;;;;;;;16.10;11.85;;;;;;;;;;5091526;28;20527;-84
2022/07/21 02:03:59;;;;;;;13.73;10.43;;;20.00;99.90;;;;;;5091125;28;20036;-83
2022/07/21 02:06:25;;;;;;;18.25;11.77;;;;;;;;;;5074504;28;20475;-84
2022/07/21 02:08:51;;;;;;;18.30;11.90;;;;;;;;;;5091027;28;20538;-83
2022/07/21 02:11:18;;;;;;;17.30;11.18;;;20.10;99.90;;;;;;5091126;28;20044;-83
2022/07/21 02:13:45;;;;;;;18.02;11.55;;;20.10;99.90;;;;;;5090978;28;20044;-82
2022/07/21 02:16:11;;;;;;;18.13;12.20;;;;;;;;;;5074133;28;20123;-82
2022/07/21 02:18:37;;;;;;;18.00;11.55;;;;;;;;;;5090755;28;20507;-82
2022/07/21 02:21:04;;;;;;;17.17;12.57;;;;;;;;;;5090914;28;20043;-82
2022/07/21 02:23:30;;;;;;;17.45;12.30;;;;;;;;;;5073743;28;20048;-82
2022/07/21 02:25:56;;;;;;;19.42;11.77;;;;;;;;;;5073274;28;20519;-82
2022/07/21 02:28:23;;;;;;;16.88;12.13;;;20.00;99.90;;;;;;5092472;28;20046;-82
2022/07/21 02:30:50;;;;;;;18.23;12.40;;;20.10;99.90;;;;;;5073723;28;20043;-82
2022/07/21 02:33:16;;;;;;;17.33;12.68;;;;;;;;;;5090846;28;20048;-82
2022/07/21 02:35:42;;;;;;;20.17;14.55;;;;;;;;;;5090902;28;20052;-82
2022/07/21 02:38:09;;;;;;;18.30;13.70;;;;;;;;;;5074294;28;20044;-82
2022/07/21 02:40:35;;;;;;;16.55;14.20;;;;;;;;;;5090060;28;20485;-82
2022/07/21 02:43:01;;;;;;;16.65;12.38;;;;;;;;;;5090504;28;20130;-82
2022/07/21 02:45:27;;;;;;;19.13;13.15;;;;;;;;;;5073756;28;20036;-82
2022/07/21 02:48:02;;;;;;;18.02;15.60;;;;;;;;;;5073663;28;20040;-82
2022/07/21 02:50:31;;;;;;;17.65;14.32;;;19.90;99.90;;;;;;5090787;28;20543;-82
2022/07/21 02:52:58;;;;;;;20.50;13.85;;;19.80;99.90;;;;;;5073630;28;20496;-82
2022/07/21 02:55:25;;;;;;;19.80;14.07;;;19.80;99.90;;;;;;5073762;28;20057;-82
2022/07/21 02:58:04;;;;;;;21.25;14.25;;;;;;;;;;5090448;28;20036;-82
2022/07/21 03:00:30;;;;;;;19.60;13.50;;;;;;;;;;5073555;28;20058;-82
2022/07/21 03:02:56;;;;;;;21.38;14.90;;;;;;;;;;5090384;28;20086;-84
2022/07/21 03:05:22;;;;;;;17.77;13.10;;;;;;;;;;5090349;28;20056;-84
2022/07/21 03:07:48;;;;;;;18.67;14.45;;;;;;;;;;5073507;28;20040;-84
2022/07/21 03:10:14;;;;;;;22.05;14.75;;;;;;;;;;5090074;28;20044;-84
2022/07/21 03:12:40;;;;;;;19.83;13.68;;;;;;;;;;5073557;28;20055;-84
2022/07/21 03:15:06;;;;;;;23.15;15.68;;;;;;;;;;5090508;28;20043;-84
2022/07/21 03:17:32;;;;;;;17.30;14.10;;;;;;;;;;5073644;28;20094;-84
2022/07/21 03:19:58;;;;;;;23.92;15.65;;;;;;;;;;5090325;28;20404;-84
2022/07/21 03:22:24;;;;;;;26.95;16.02;;;;;;;;;;5073340;28;20476;-85
2022/07/21 03:24:50;;;;;;;23.33;15.77;;;;;;;;;;5073124;28;20046;-85
2022/07/21 03:27:17;;;;;;;25.90;15.18;;;19.80;99.90;;;;;;5090292;28;20044;-85
2022/07/21 03:29:43;;;;;;;25.13;16.05;;;;;;;;;;5090123;28;20522;-84
2022/07/21 03:32:09;;;;;;;22.27;15.43;;;;;;;;;;5090402;28;20047;-84
2022/07/21 03:34:35;;;;;;;26.10;18.23;;;;;;;;;;5090183;28;20496;-84
2022/07/21 03:37:01;;;;;;;23.77;17.40;;;;;;;;;;5090265;28;20032;-84
2022/07/21 03:39:27;;;;;;;25.45;16.63;;;;;;;;;;5093865;28;20483;-84
2022/07/21 03:41:53;;;;;;;22.17;15.80;;;;;;;;;;5076719;28;20496;-84
2022/07/21 03:44:20;;;;;;;21.92;15.35;;;;;;;;;;5076872;28;20303;-84
2022/07/21 03:46:46;;;;;;;23.38;14.70;;;;;;;;;;5077368;28;20091;-84
2022/07/21 03:49:12;;;;;;;18.85;15.15;;;;;;;;;;5076847;28;20097;-82
2022/07/21 03:51:38;;;;;;;22.48;15.68;;;;;;;;;;5093783;28;20051;-82
2022/07/21 03:54:04;;;;;;;19.10;14.80;;;19.80;99.90;;;;;;5076709;28;20043;-82
2022/07/21 03:56:30;;;;;;;20.00;14.75;;;;;;;;;;5093205;28;20044;-82
2022/07/21 03:58:56;;;;;;;20.42;15.73;;;;;;;;;;5093379;28;20040;-82
2022/07/21 04:01:22;;;;;;;19.73;16.13;;;;;;;;;;5095145;28;20051;-81
2022/07/21 04:03:48;;;;;;;24.92;15.10;;;;;;;;;;5095084;28;20437;-82
2022/07/21 04:06:14;;;;;;;22.45;16.05;;;;;;;;;;5076526;28;20047;-82
2022/07/21 04:08:40;;;;;;;20.48;15.15;;;;;;;;;;5093451;28;20134;-82
2022/07/21 04:11:06;;;;;;;24.42;15.55;;;;;;;;;;5094575;28;20048;-82
2022/07/21 04:13:32;;;;;;;20.48;16.42;;;;;;;;;;5094548;28;20044;-82
2022/07/21 04:15:58;;;;;;;19.90;15.85;;;;;;;;;;5094773;28;20048;-82
2022/07/21 04:18:24;;;;;;;20.48;15.40;;;;;;;;;;5093324;28;20040;-81
2022/07/21 04:20:50;;;;;;;20.17;15.02;;;;;;;;;;5094351;28;20051;-82
2022/07/21 04:23:16;;;;;;;20.70;14.23;;;;;;;;;;5076466;28;20048;-82
2022/07/21 04:25:42;;;;;;;26.10;16.13;;;;;;;;;;5094590;28;20057;-82
2022/07/21 04:28:11;;;;;;;21.30;15.68;;;;;;;;;;5092973;28;20051;-82
2022/07/21 04:30:37;;;;;;;20.58;15.95;;;;;;;;;;5076509;28;20048;-81
2022/07/21 04:33:03;;;;;;;18.20;15.45;;;;;;;;;;5092948;28;20445;-82
2022/07/21 04:35:30;;;;;;;23.15;16.48;;;;;;;;;;5094287;28;20464;-84
2022/07/21 04:37:56;;;;;;;22.20;16.85;;;;;;;;;;5092842;28;20040;-81
2022/07/21 04:40:22;;;;;;;23.45;16.15;;;;;;;;;;5092896;28;20051;-81
2022/07/21 04:42:48;;;;;;;23.90;17.10;;;;;;;;;;5094454;28;20048;-81
2022/07/21 04:45:15;;;;;;;21.73;16.08;;;19.70;99.90;;;;;;5093392;28;20040;-82
2022/07/21 04:47:54;;;;;;;26.45;18.77;;;19.70;99.90;;;;;;5092968;28;20055;-82
2022/07/21 04:50:22;;;;;;;23.50;18.92;;;19.90;99.90;;;;;;5093112;28;20477;-82
2022/07/21 04:52:48;;;;;;;25.55;19.75;;;;;;;;;;5093075;28;20050;-82
2022/07/21 04:55:15;;;;;;;25.50;19.45;;;;;;;;;;5076052;28;20500;-83
2022/07/21 04:57:43;;;;;;;26.92;20.63;;;19.80;99.90;;;;;;5092748;28;20390;-82
2022/07/21 05:00:10;;;;;;;26.55;19.38;;;;;;;;;;5092806;28;20408;-83
2022/07/21 05:02:37;;;;;;;25.77;18.80;;;;;;;;;;5093143;28;20051;-82
2022/07/21 05:05:03;;;;;;;22.40;18.75;;;19.70;99.90;;;;;;5075662;28;20479;-82
2022/07/21 05:07:29;;;;;;;28.27;20.42;;;;;;;;;;5075717;28;20040;-83
2022/07/21 05:09:57;;;;;;;22.67;19.60;;;;;;;;;;5075798;28;20040;-82
2022/07/21 05:12:23;;;;;;;24.10;19.83;;;;;;;;;;5092539;28;20035;-83
2022/07/21 05:14:49;;;;;;;29.25;19.30;;;;;;;;;;5092186;28;20404;-83
2022/07/21 05:17:15;;;;;;;21.08;18.15;;;;;;;;;;5075769;28;20044;-81
2022/07/21 05:19:43;;;;;;;21.75;17.88;;;;;;;;;;5075097;28;20047;-82
2022/07/21 05:22:09;;;;;;;22.42;19.83;;;;;;;;;;5092034;28;20161;-84
2022/07/21 05:24:35;;;;;;;24.10;18.15;;;;;;;;;;5092130;28;20128;-82
2022/07/21 05:27:01;;;;;;;24.17;18.58;;;;;;;;;;5075150;28;20048;-82
2022/07/21 05:29:27;;;;;;;19.75;16.75;;;19.80;99.90;;;;;;5074705;28;20055;-82
2022/07/21 05:31:53;;;;;;;19.92;15.88;;;;;;;;;;5074854;28;20040;-83
2022/07/21 05:34:19;;;;;;;16.48;14.43;;;;;;;;;;5091667;28;20048;-84
2022/07/21 05:36:45;;;;;;;16.92;14.82;;;;;;;;;;5074779;28;20122;-83
2022/07/21 05:39:11;;;;;;;16.73;14.85;;;;;;;;;;5091232;28;20558;-82
2022/07/21 05:41:37;;;;;;;15.75;14.15;;;;;;;;;;5091574;28;20150;-83
2022/07/21 05:44:03;;;;;;;17.05;14.70;;;;;;;;;;5074412;28;20079;-82
2022/07/21 05:46:29;;;;;;;16.25;14.50;;;;;;;;;;5074824;28;20040;-82
2022/07/21 05:48:55;;;;;;;16.92;15.13;;;;;;;;;;5074452;28;20036;-81
2022/07/21 05:51:21;;;;;;;21.40;17.67;;;;;;;;;;5074914;28;20141;-82
2022/07/21 05:53:47;;;;;;;20.15;16.73;;;;;;;;;;5074450;28;20127;-82
2022/07/21 05:56:13;;;;;;;18.23;15.93;;;;;;;;;;5091379;28;20048;-83
2022/07/21 05:58:39;;;;;;;26.52;18.08;;;;;;;;;;5074466;28;20100;-82
2022/07/21 06:01:08;;;;;;;22.05;17.92;;;;;;;;;;5074119;28;20107;-83
2022/07/21 06:03:45;;;;;;;22.55;18.90;;;19.50;99.90;;;;;;5092196;28;20507;-81
2022/07/21 06:06:12;;;;;;;21.67;17.50;;;19.60;99.90;;;;;;5091784;28;20086;-84
2022/07/21 06:08:39;;;;;;;23.48;18.23;;;;;;;;;;5074971;28;20043;-83
2022/07/21 06:11:05;;;;;;;23.45;18.27;;;;;;;;;;5092003;28;20130;-84
2022/07/21 06:13:31;;;;;;;25.27;18.75;;;;;;;;;;5075154;28;20131;-84
2022/07/21 06:15:57;;;;;;;25.38;20.13;;;;;;;;;;5091612;28;20044;-83
2022/07/21 06:18:23;;;;;;;24.20;19.38;;;;;;;;;;5074935;28;20044;-84
2022/07/21 06:20:49;;;;;;;23.08;19.90;;;;;;;;;;5092067;28;20079;-84
2022/07/21 06:23:15;;;;;;;27.55;20.65;;;;;;;;;;5075028;28;20071;-84
2022/07/21 06:25:42;;;;;;;25.88;19.98;;;;;;;;;;5091049;28;20442;-83
2022/07/21 06:28:08;;;;;;;25.20;20.10;;;;;;;;;;5074434;28;20043;-84
2022/07/21 06:30:34;;;;;;;22.25;19.10;;;;;;;;;;5073973;28;20400;-83
2022/07/21 06:33:00;;;;;;;24.67;19.70;;;;;;;;;;5091218;28;20056;-83
2022/07/21 06:35:26;;;;;;;26.25;19.08;;;;;;;;;;5090930;28;20040;-83
2022/07/21 06:37:52;;;;;;;24.02;19.92;;;;;;;;;;5091052;28;20039;-82
2022/07/21 06:40:18;;;;;;;24.05;19.27;;;;;;;;;;5090474;28;20052;-83
2022/07/21 06:42:44;;;;;;;23.13;18.98;;;;;;;;;;5073762;28;20048;-82
2022/07/21 06:45:10;;;;;;;25.58;19.58;;;;;;;;;;5090632;28;20060;-82
2022/07/21 06:47:36;;;;;;;25.52;18.83;;;;;;;;;;5090574;28;20040;-82
2022/07/21 06:50:02;;;;;;;24.58;19.20;;;;;;;;;;5073740;28;20084;-83
2022/07/21 06:52:32;;;;;;;24.38;18.98;;;19.70;99.90;;;;;;5090642;28;20052;-83
2022/07/21 06:54:58;;;;;;;25.92;18.60;;;;;;;;;;5090497;28;20044;-83
2022/07/21 06:57:24;;;;;;;28.48;20.00;;;;;;;;;;5090549;28;20044;-84
2022/07/21 06:59:50;;;;;;;23.75;19.85;;;;;;;;;;5090329;28;20083;-84
2022/07/21 07:02:16;;;;;;;23.70;19.55;;;19.60;99.90;;;;;;5090118;28;20496;-83
2022/07/21 07:04:46;;;;;;;24.60;19.65;;;;;;;;;;5090302;28;20048;-83
2022/07/21 07:07:12;;;;;;;22.15;18.55;;;;;;;;;;5073366;28;20051;-83
2022/07/21 07:09:38;;;;;;;23.33;19.13;;;;;;;;;;5090412;28;20492;-84
2022/07/21 07:12:05;;;;;;;24.23;19.67;;;19.90;99.90;;;;;;5075377;28;20044;-84
2022/07/21 07:14:31;;;;;;;24.58;19.75;;;;;;;;;;5077937;28;20492;-83
2022/07/21 07:16:58;;;;;;;21.25;18.60;;;;;;;;;;5077230;28;20043;-84
2022/07/21 07:19:24;;;;;;;27.20;20.55;;;;;;;;;;5094185;28;20039;-84
2022/07/21 07:21:50;;;;;;;24.90;20.35;;;;;;;;;;5094213;28;20044;-84
2022/07/21 07:24:16;;;;;;;28.95;22.00;;;;;;;;;;5094361;28;20032;-84
2022/07/21 07:26:42;;;;;;;21.30;19.02;;;;;;;;;;5094152;28;20135;-84
2022/07/21 07:29:08;;;;;;;28.23;22.17;;;;;;;;;;5094224;28;20044;-84
2022/07/21 07:31:35;;;;;;;27.50;20.92;;;;;;;;;;5094249;28;20066;-84
2022/07/21 07:34:01;;;;;;;30.45;22.30;;;;;;;;;;5076820;28;20054;-84
2022/07/21 07:36:28;;;;;;;28.23;22.42;;;20.10;99.90;;;;;;5077116;28;20542;-84
2022/07/21 07:38:56;;;;;;;27.08;23.05;;;20.10;99.90;;;;;;5093651;28;20050;-84
2022/07/21 07:41:23;;;;;;;26.75;23.65;;;20.20;99.90;;;;;;5076854;28;20055;-82
2022/07/21 07:43:51;;;;;;;26.73;21.48;;;;;;;;;;5077032;28;20040;-83
2022/07/21 07:46:17;;;;;;;29.63;21.02;;;;;;;;;;5076980;28;20051;-84
2022/07/21 07:48:43;;;;;;;28.42;23.20;;;;;;;;;;5076570;28;20040;-84
2022/07/21 07:51:10;;;;;;;25.13;22.10;;;20.00;99.90;;;;;;5094021;28;20040;-84
2022/07/21 07:53:36;;;;;;;28.17;21.15;;;;;;;;;;5093894;28;20051;-85
2022/07/21 07:56:04;;;;;;;28.05;22.73;;;20.20;99.90;;;;;;5076713;28;20043;-84
2022/07/21 07:58:30;;;;;;;29.30;23.17;;;;;;;;;;5076527;28;20516;-81
2022/07/21 08:00:56;;;;;;;30.08;22.88;;;;;;;;;;5076564;28;20135;-82
2022/07/21 08:03:22;;;;;;;28.52;23.67;;;;;;;;;;5093562;28;20098;-83
2022/07/21 08:05:48;;;;;;;27.08;21.80;;;;;;;;;;5093403;28;20455;-82
2022/07/21 08:08:15;;;;;;;26.80;23.33;;;;;;;;;;5093351;28;20131;-82
2022/07/21 08:10:41;;;;;;;29.15;22.83;;;;;;;;;;5093253;28;20411;-81
2022/07/21 08:13:08;;;;;;;29.63;23.38;;;;;;;;;;5093497;28;20511;-82
2022/07/21 08:15:34;;;;;;;30.33;23.83;;;;;;;;;;5076487;28;20044;-82
2022/07/21 08:18:00;;;;;;;26.58;22.38;;;;;;;;;;5076428;28;20452;-82
2022/07/21 08:20:26;;;;;;;29.55;22.95;;;;;;;;;;5093124;28;20180;-82
2022/07/21 08:22:52;;;;;;;32.05;22.92;;;;;;;;;;5092504;28;20504;-85
2022/07/21 08:25:18;;;;;;;33.22;25.92;;;;;;;;;;5092880;28;20035;-80
2022/07/21 08:27:45;;;;;;;29.63;25.13;;;;;;;;;;5093430;28;20082;-82
2022/07/21 08:30:11;;;;;;;30.67;24.48;;;;;;;;;;5092986;28;20051;-82
2022/07/21 08:32:37;;;;;;;27.70;22.33;;;;;;;;;;5093194;28;20040;-84
2022/07/21 08:35:08;;;;;;;27.65;22.98;;;20.40;99.90;;;;;;5075850;28;20048;-84
2022/07/21 08:37:34;;;;;;;29.92;22.60;;;;;;;;;;5076126;28;20114;-84
2022/07/21 08:40:00;;;;;;;28.30;24.63;;;;;;;;;;5092556;28;20063;-84
2022/07/21 08:42:26;;;;;;;29.80;24.77;;;20.40;99.90;;;;;;5076102;28;20194;-84
2022/07/21 08:44:52;;;;;;;29.98;23.30;;;;;;;;;;5092747;28;20126;-83
2022/07/21 08:47:18;;;;;;;33.92;26.10;;;;;;;;;;5092619;28;20121;-82
2022/07/21 08:49:46;;;;;;;32.40;26.10;;;20.50;99.90;;;;;;5092686;28;20044;-81
2022/07/21 08:52:12;;;;;;;31.20;25.45;;;;;;;;;;5092475;28;20158;-83
2022/07/21 08:54:38;;;;;;;31.80;26.88;;;;;;;;;;5092665;28;20101;-82
2022/07/21 08:57:04;;;;;;;30.40;25.50;;;;;;;;;;5075594;28;20047;-84
2022/07/21 08:59:30;;;;;;;32.58;26.77;;;;;;;;;;5092290;28;20458;-85
2022/07/21 09:01:56;;;;;;;32.97;26.98;;;;;;;;;;5075528;28;20086;-84
2022/07/21 09:04:31;;;;;;;35.40;28.02;;;20.70;99.90;;;;;;5075645;28;20048;-83
2022/07/21 09:07:03;;;;;;;32.72;27.13;;;20.80;99.90;;;;;;5075413;28;20048;-85
2022/07/21 09:09:31;;;;;;;36.40;28.13;;;20.80;99.90;;;;;;5092337;28;20090;-81
2022/07/21 09:11:57;;;;;;;34.28;26.13;;;;;;;;;;5092031;28;20043;-82
2022/07/21 09:14:26;;;;;;;38.88;27.95;;;20.70;99.90;;;;;;5092308;28;20140;-83
2022/07/21 09:17:00;;;;;;;35.60;28.63;;;20.70;99.90;;;;;;5092217;28;20077;-82
2022/07/21 09:19:25;;;;;;;39.22;30.95;;;;;;;;;;5075043;28;20474;-81
2022/07/21 09:21:54;;;;;;;41.00;30.40;;;20.90;99.90;;;;;;5092068;28;20061;-81
2022/07/21 09:24:25;;;;;;;41.70;27.83;;;20.70;99.90;;;;;;5092336;28;20036;-82
2022/07/21 09:26:57;;;;;;;39.42;30.50;;;20.80;99.90;;;;;;5092375;28;20048;-82
2022/07/21 09:29:23;;;;;;;37.55;29.27;;;;;;;;;;5091939;28;20043;-82
2022/07/21 09:31:49;;;;;;;36.85;28.38;;;;;;;;;;5092314;28;20044;-82
2022/07/21 09:34:15;;;;;;;37.55;30.23;;;;;;;;;;5091625;28;20035;-82
2022/07/21 09:36:58;;;;;;;39.70;31.55;;;20.80;99.90;;;;;;5074991;28;20134;-84
2022/07/21 09:39:47;;;;;;;40.28;28.98;;;20.70;99.90;;;;;;5074644;28;20051;-81
2022/07/21 09:42:31;;;;;;;36.13;28.52;;;20.90;99.90;;;;;;5091802;28;20437;-82
2022/07/21 09:45:03;;;;;;;39.40;31.30;;;20.70;99.90;;;;;;5074849;28;20438;-82
2022/07/21 09:47:31;;;;;;;40.05;32.30;;;20.70;99.90;;;;;;5074966;28;20052;-81
2022/07/21 09:49:58;;;;;;;37.38;31.05;;;20.70;99.90;;;;;;5074760;28;20123;-83
2022/07/21 09:52:36;;;;;;;34.53;29.92;;;20.60;99.90;;;;;;5074317;28;20048;-82
2022/07/21 09:55:22;;;;;;;42.53;32.10;;;20.50;99.90;;;;;;5091664;28;20109;-82
2022/07/21 09:57:48;;;;;;;36.58;29.35;;;;;;;;;;5073944;28;20496;-84
2022/07/21 10:00:18;;;;;;;35.20;29.05;;;20.80;99.90;;;;;;5074407;28;20458;-85
2022/07/21 10:02:44;;;;;;;37.22;29.80;;;20.60;99.90;;;;;;5091173;28;20072;-85
2022/07/21 10:05:21;;;;;;;39.30;32.03;;;20.50;99.90;;;;;;5074264;28;20101;-84
2022/07/21 10:07:48;;;;;;;37.85;31.27;;;20.70;99.90;;;;;;5090877;28;20047;-84
2022/07/21 10:10:14;;;;;;;43.55;32.10;;;;;;;;;;5073999;28;20087;-84
2022/07/21 10:12:41;;;;;;;36.90;31.50;;;;;;;;;;5091150;28;20520;-82
2022/07/21 10:15:08;;;;;;;38.63;31.45;;;20.60;99.90;;;;;;5091229;28;20048;-81
2022/07/21 10:17:34;;;;;;;45.22;32.15;;;;;;;;;;5074557;28;20048;-84
2022/07/21 10:20:16;;;;;;;43.83;31.85;;;20.60;99.90;;;;;;5092463;28;20051;-82
2022/07/21 10:22:53;;;;;;;41.30;33.45;;;20.60;99.90;;;;;;5092431;28;20044;-82
2022/07/21 10:25:21;;;;;;;41.42;31.55;;;20.60;99.90;;;;;;5092294;28;20059;-82
2022/07/21 10:28:14;;;;;;;40.97;31.88;;;20.70;99.90;;;;;;5092322;28;20078;-81
2022/07/21 10:30:48;;;;;;;36.58;30.85;;;20.80;99.90;;;;;;5074042;28;20048;-81
2022/07/21 10:33:17;;;;;;;36.05;29.13;;;20.50;99.90;;;;;;5090620;28;20039;-82
2022/07/21 10:35:51;;;;;;;39.75;31.40;;;20.70;99.90;;;;;;5090611;28;20083;-82
2022/07/21 10:38:31;;;;;;;38.08;28.50;;;20.70;99.90;;;;;;5090522;28;20443;-81
2022/07/21 10:40:58;;;;;;;36.58;30.27;;;20.90;99.90;;;;;;5090524;28;20052;-81
2022/07/21 10:43:24;;;;;;;36.45;29.25;;;;;;;;;;5073667;28;20040;-82
2022/07/21 10:45:51;;;;;;;35.42;29.20;;;;;;;;;;5073548;28;20052;-82
2022/07/21 10:48:39;;;;;;;38.05;29.42;;;20.80;99.90;;;;;;5073528;28;20048;-81
2022/07/21 10:51:08;;;;;;;35.00;27.83;;;20.80;99.90;;;;;;5090564;28;20087;-81
2022/07/21 10:53:34;;;;;;;38.50;28.60;;;;;;;;;;5090234;28;20135;-81
2022/07/21 10:56:01;;;;;;;36.30;27.52;;;;;;;;;;5073925;28;20952;-82
2022/07/21 10:58:31;;;;;;;33.70;26.92;;;20.60;99.90;;;;;;5073792;28;20089;-81
2022/07/21 11:01:02;;;;;;;32.47;24.38;;;20.70;99.90;;;;;;5090311;28;20051;-82
2022/07/21 11:03:38;;;;;;;28.05;22.55;;;20.70;99.90;;;;;;5090690;28;20043;-82
2022/07/21 11:06:07;;;;;;;32.00;24.67;;;20.70;99.90;;;;;;5073531;28;20086;-81
2022/07/21 11:08:33;;;;;;;28.40;22.80;;;;;;;;;;5090301;28;20123;-84
2022/07/21 11:11:16;;;;;;;29.63;22.73;;;20.40;99.90;;;;;;5090193;28;20096;-81
2022/07/21 11:14:00;;;;;;;29.73;24.60;;;20.70;99.90;;;;;;5090413;28;20044;-81
2022/07/21 11:16:38;;;;;;;;;;;20.80;99.90;;;;;;5074081;28;20058;-81
2022/07/21 11:19:04;;;;;;;25.23;22.52;;;;;;;;;;5090049;28;19922;-81
2022/07/21 11:21:30;;;;;;;29.50;22.92;;;;;;;;;;5090365;28;20120;-81
2022/07/21 11:23:56;;;;;;;25.75;21.33;;;;;;;;;;5073303;28;20046;-82
2022/07/21 11:26:26;;;;;;;24.63;20.60;;;20.80;99.90;;;;;;5073055;28;20051;-82
2022/07/21 11:29:06;;;;;;;21.95;18.77;;;20.90;99.90;;;;;;5073233;28;20051;-81
2022/07/21 11:31:32;;;;;;;24.67;20.45;;;;;;;;;;5073461;28;20084;-84
2022/07/21 11:33:58;;;;;;;20.80;17.05;;;;;;;;;;5090253;28;20093;-86
2022/07/21 11:36:29;;;;;;;16.88;14.90;;;20.80;99.90;;;;;;5090183;28;20047;-86
2022/07/21 11:38:58;;;;;;;15.60;14.00;;;20.90;99.90;;;;;;5089797;28;20097;-85
2022/07/21 11:41:24;;;;;;;14.98;13.45;;;;;;;;;;5073267;28;20408;-85
2022/07/21 11:43:50;;;;;;;15.50;13.43;;;;;;;;;;5073508;28;20051;-86
2022/07/21 11:46:16;;;;;;;14.50;13.00;;;;;;;;;;5090352;28;20086;-86
2022/07/21 11:48:42;;;;;;;16.98;11.88;;;;;;;;;;5073174;28;20051;-85
2022/07/21 11:51:08;;;;;;;14.65;13.23;;;;;;;;;;5090123;28;20085;-85
2022/07/21 11:53:34;;;;;;;13.27;11.88;;;;;;;;;;5090316;28;20409;-85
2022/07/21 11:56:01;;;;;;;12.82;11.52;;;;;;;;;;5073090;28;20047;-83
2022/07/21 11:58:27;;;;;;;13.38;11.98;;;;;;;;;;5073884;28;20141;-83
2022/07/21 12:01:06;;;;;;;13.77;12.38;;;21.00;99.90;;;;;;5093936;28;20094;-84
2022/07/21 12:03:33;;;;;;;14.60;11.98;;;;;;;;;;5093869;28;20051;-86
2022/07/21 12:06:02;;;;;;;21.77;13.00;;;21.30;99.90;;;;;;5093821;28;20044;-84
2022/07/21 12:08:29;;;;;;;14.10;12.68;;;21.20;99.90;;;;;;5076500;28;20044;-80
2022/07/21 12:11:07;;;;;;;16.23;13.25;;;21.10;99.90;;;;;;5093266;28;20403;-81
2022/07/21 12:13:52;;;;;;;16.48;13.23;;;21.10;99.90;;;;;;5076606;28;20040;-81
2022/07/21 12:16:19;;;;;;;15.02;13.45;;;;;;;;;;5076459;28;20484;-81
2022/07/21 12:18:45;;;;;;;9.95;8.95;;;;;;;;;;5076335;28;20044;-81
2022/07/21 12:21:11;;;;;;;9.20;8.20;;;;;;;;;;5093382;28;20523;-81
2022/07/21 12:23:37;;;;;;;8.02;7.22;;;;;;;;;;5076476;28;20042;-81
2022/07/21 12:26:03;;;;;;;8.90;6.90;;;;;;;;;;5075998;28;20044;-84
2022/07/21 12:28:53;;;;;;;7.30;6.47;;;21.00;99.90;;;;;;5076179;28;20097;-82
2022/07/21 12:31:20;;;;;;;9.25;6.13;;;20.70;99.90;;;;;;5076336;28;20047;-83
2022/07/21 12:33:47;;;;;;;6.47;5.13;;;;;;;;;;5093342;28;20044;-81
2022/07/21 12:36:13;;;;;;;6.80;5.60;;;;;;;;;;5075856;28;20040;-82
2022/07/21 12:38:41;;;;;;;5.95;5.35;;;20.60;99.90;;;;;;5092822;28;20056;-81
2022/07/21 12:41:08;;;;;;;5.82;5.13;;;20.50;99.90;;;;;;5075697;28;20048;-81
2022/07/21 12:43:34;;;;;;;5.38;4.72;;;;;;;;;;5116236;27;20126;-84
2022/07/21 12:46:00;;;;;;;5.32;4.57;;;;;;;;;;5116261;27;20511;-81
2022/07/21 12:48:31;;;;;;;5.05;4.18;;;20.40;99.90;;;;;;5096277;28;20391;-81
2022/07/21 12:51:00;;;;;;;7.20;4.38;;;20.50;99.90;;;;;;5114588;27;20100;-85
2022/07/21 12:53:26;;;;;;;10.27;5.07;;;;;;;;;;5117098;27;20438;-83
2022/07/21 12:55:52;;;;;;;6.70;4.85;;;;;;;;;;5100231;27;20043;-85
2022/07/21 12:58:19;;;;;;;6.22;5.03;;;;;;;;;;5116817;27;20051;-86
2022/07/21 13:00:45;;;;;;;8.02;5.93;;;;;;;;;;5099674;27;20076;-86
2022/07/21 13:03:12;;;;;;;6.45;5.38;;;;;;;;;;5099336;27;20099;-82
2022/07/21 13:05:38;;;;;;;6.03;5.30;;;;;;;;;;5099224;27;20487;-85
2022/07/21 13:08:04;;;;;;;6.20;5.60;;;21.00;99.90;;;;;;5116218;27;20047;-86
2022/07/21 13:10:30;;;;;;;7.15;6.03;;;;;;;;;;5115854;27;20054;-86
2022/07/21 13:12:56;;;;;;;4.90;4.45;;;;;;;;;;5115437;27;20035;-85
2022/07/21 13:15:22;;;;;;;6.55;5.85;;;;;;;;;;5115910;27;20070;-85
2022/07/21 13:17:48;;;;;;;6.85;5.53;;;;;;;;;;5116216;27;20039;-86
2022/07/21 13:20:15;;;;;;;8.10;5.90;;;21.20;99.90;;;;;;5098643;27;20039;-85
2022/07/21 13:22:41;;;;;;;5.88;5.28;;;;;;;;;;5115820;27;20043;-86
2022/07/21 13:25:09;;;;;;;5.53;4.95;;;21.20;99.90;;;;;;5116086;27;20054;-86
2022/07/21 13:27:36;;;;;;;8.45;5.57;;;;;;;;;;5098485;27;20043;-83
2022/07/21 13:30:03;;;;;;;6.10;5.50;;;21.60;99.90;;;;;;5098319;27;20051;-82
2022/07/21 13:32:30;;;;;;;6.75;5.88;;;;;;;;;;5098821;27;20503;-82
2022/07/21 13:34:56;;;;;;;6.03;5.00;;;;;;;;;;5098404;27;20064;-82
2022/07/21 13:37:22;;;;;;;7.82;6.25;;;;;;;;;;5098454;27;20039;-84
2022/07/21 13:39:48;;;;;;;5.82;5.00;;;;;;;;;;5115136;27;20055;-81
2022/07/21 13:42:14;;;;;;;5.38;4.85;;;;;;;;;;5098523;27;20092;-83
2022/07/21 13:44:40;;;;;;;7.10;4.35;;;;;;;;;;5115462;27;20051;-81
2022/07/21 13:47:06;;;;;;;7.03;4.95;;;;;;;;;;5098309;27;20559;-81
2022/07/21 13:49:32;;;;;;;6.90;4.90;;;21.30;99.90;;;;;;5098120;27;20134;-82